sensor_id;sensor_type;location;lat;lon;timestamp;temperature;humidity
59282;DHT22;45054;52.062;10.010;2023-02-01T00:00:16;5.20;99.90
59282;DHT22;45054;52.062;10.010;2023-02-01T00:02:42;5.20;99.90
59282;DHT22;45054;52.062;10.010;2023-02-01T00:05:08;5.20;99.90
59282;DHT22;45054;52.062;10.010;2023-02-01T00:07:33;5.20;99.90
59282;DHT22;45054;52.062;10.010;2023-02-01T00:09:59;5.20;99.90
59282;DHT22;45054;52.062;10.010;2023-02-01T00:12:24;5.20;99.90
59282;DHT22;45054;52.062;10.010;2023-02-01T00:14:50;5.20;99.90
59282;DHT22;45054;52.062;10.010;2023-02-01T00:17:16;5.20;99.90
59282;DHT22;45054;52.062;10.010;2023-02-01T00:19:42;5.20;99.90
59282;DHT22;45054;52.062;10.010;2023-02-01T00:22:07;5.20;99.90
59282;DHT22;45054;52.062;10.010;2023-02-01T00:24:33;5.20;99.90
59282;DHT22;45054;52.062;10.010;2023-02-01T00:26:58;5.20;99.90
59282;DHT22;45054;52.062;10.010;2023-02-01T00:29:24;5.10;99.90
59282;DHT22;45054;52.062;10.010;2023-02-01T00:31:49;5.10;99.90
59282;DHT22;45054;52.062;10.010;2023-02-01T00:34:16;5.10;99.90
59282;DHT22;45054;52.062;10.010;2023-02-01T00:36:42;5.10;99.90
59282;DHT22;45054;52.062;10.010;2023-02-01T00:39:08;5.10;99.90
59282;DHT22;45054;52.062;10.010;2023-02-01T00:41:34;5.10;99.90
59282;DHT22;45054;52.062;10.010;2023-02-01T00:43:59;5.10;99.90
59282;DHT22;45054;52.062;10.010;2023-02-01T00:46:25;5.10;99.90
59282;DHT22;45054;52.062;10.010;2023-02-01T00:48:50;5.10;99.90
59282;DHT22;45054;52.062;10.010;2023-02-01T00:51:18;5.00;99.90
59282;DHT22;45054;52.062;10.010;2023-02-01T00:53:43;5.00;99.90
59282;DHT22;45054;52.062;10.010;2023-02-01T00:56:09;4.90;99.90
59282;DHT22;45054;52.062;10.010;2023-02-01T00:58:35;4.90;99.90
59282;DHT22;45054;52.062;10.010;2023-02-01T01:01:01;5.00;99.90
59282;DHT22;45054;52.062;10.010;2023-02-01T01:03:26;5.00;99.90
59282;DHT22;45054;52.062;10.010;2023-02-01T01:05:56;4.90;99.90
59282;DHT22;45054;52.062;10.010;2023-02-01T01:08:23;4.90;99.90
59282;DHT22;45054;52.062;10.010;2023-02-01T01:10:48;4.90;99.90
59282;DHT22;45054;52.062;10.010;2023-02-01T01:13:14;4.90;99.90
59282;DHT22;45054;52.062;10.010;2023-02-01T01:15:39;4.90;99.90
59282;DHT22;45054;52.062;10.010;2023-02-01T01:18:05;4.90;99.90
59282;DHT22;45054;52.062;10.010;2023-02-01T01:20:31;4.90;99.90
59282;DHT22;45054;52.062;10.010;2023-02-01T01:22:56;4.90;99.90
59282;DHT22;45054;52.062;10.010;2023-02-01T01:25:23;4.90;99.90
59282;DHT22;45054;52.062;10.010;2023-02-01T01:27:49;4.90;99.90
59282;DHT22;45054;52.062;10.010;2023-02-01T01:30:15;4.90;99.90
59282;DHT22;45054;52.062;10.010;2023-02-01T01:32:40;5.00;99.90
59282;DHT22;45054;52.062;10.010;2023-02-01T01:35:06;4.90;99.90
59282;DHT22;45054;52.062;10.010;2023-02-01T01:37:31;4.90;99.90
59282;DHT22;45054;52.062;10.010;2023-02-01T01:39:57;4.90;99.90
59282;DHT22;45054;52.062;10.010;2023-02-01T01:42:24;4.90;99.90
59282;DHT22;45054;52.062;10.010;2023-02-01T01:44:56;4.90;99.90
59282;DHT22;45054;52.062;10.010;2023-02-01T01:47:22;5.00;99.90
59282;DHT22;45054;52.062;10.010;2023-02-01T01:49:48;5.00;99.90
59282;DHT22;45054;52.062;10.010;2023-02-01T01:52:14;5.00;99.90
59282;DHT22;45054;52.062;10.010;2023-02-01T01:54:40;5.00;99.90
59282;DHT22;45054;52.062;10.010;2023-02-01T01:57:09;4.90;99.90
59282;DHT22;45054;52.062;10.010;2023-02-01T01:59:37;5.00;99.90
59282;DHT22;45054;52.062;10.010;2023-02-01T02:02:03;5.00;99.90
59282;DHT22;45054;52.062;10.010;2023-02-01T02:04:29;5.10;99.90
59282;DHT22;45054;52.062;10.010;2023-02-01T02:06:56;5.10;99.90
59282;DHT22;45054;52.062;10.010;2023-02-01T02:09:24;5.10;99.90
59282;DHT22;45054;52.062;10.010;2023-02-01T02:11:50;5.10;99.90
59282;DHT22;45054;52.062;10.010;2023-02-01T02:14:16;5.10;99.90
59282;DHT22;45054;52.062;10.010;2023-02-01T02:16:50;5.10;99.90
59282;DHT22;45054;52.062;10.010;2023-02-01T02:19:40;5.10;99.90
59282;DHT22;45054;52.062;10.010;2023-02-01T02:22:17;5.10;99.90
59282;DHT22;45054;52.062;10.010;2023-02-01T02:25:01;5.10;99.90
59282;DHT22;45054;52.062;10.010;2023-02-01T02:27:31;5.10;99.90
59282;DHT22;45054;52.062;10.010;2023-02-01T02:30:11;5.10;99.90
59282;DHT22;45054;52.062;10.010;2023-02-01T02:33:01;5.10;99.90
59282;DHT22;45054;52.062;10.010;2023-02-01T02:35:33;5.10;99.90
59282;DHT22;45054;52.062;10.010;2023-02-01T02:38:02;5.20;99.90
59282;DHT22;45054;52.062;10.010;2023-02-01T02:40:31;5.20;99.90
59282;DHT22;45054;52.062;10.010;2023-02-01T02:42:58;5.20;99.90
59282;DHT22;45054;52.062;10.010;2023-02-01T02:45:26;5.10;99.90
59282;DHT22;45054;52.062;10.010;2023-02-01T02:47:54;5.20;99.90
59282;DHT22;45054;52.062;10.010;2023-02-01T02:50:23;5.20;99.90
59282;DHT22;45054;52.062;10.010;2023-02-01T02:52:53;5.20;99.90
59282;DHT22;45054;52.062;10.010;2023-02-01T02:55:19;5.20;99.90
59282;DHT22;45054;52.062;10.010;2023-02-01T02:57:45;5.20;99.90
59282;DHT22;45054;52.062;10.010;2023-02-01T03:00:12;5.20;99.90
59282;DHT22;45054;52.062;10.010;2023-02-01T03:02:38;5.20;99.90
59282;DHT22;45054;52.062;10.010;2023-02-01T03:05:04;5.20;99.90
59282;DHT22;45054;52.062;10.010;2023-02-01T03:07:45;5.20;99.90
59282;DHT22;45054;52.062;10.010;2023-02-01T03:10:16;5.20;99.90
59282;DHT22;45054;52.062;10.010;2023-02-01T03:12:42;5.30;99.90
59282;DHT22;45054;52.062;10.010;2023-02-01T03:15:10;5.30;99.90
59282;DHT22;45054;52.062;10.010;2023-02-01T03:17:38;5.30;99.90
59282;DHT22;45054;52.062;10.010;2023-02-01T03:20:05;5.30;99.90
59282;DHT22;45054;52.062;10.010;2023-02-01T03:22:31;5.30;99.90
59282;DHT22;45054;52.062;10.010;2023-02-01T03:24:58;5.30;99.90
59282;DHT22;45054;52.062;10.010;2023-02-01T03:27:26;5.30;99.90
59282;DHT22;45054;52.062;10.010;2023-02-01T03:29:54;5.40;99.90
59282;DHT22;45054;52.062;10.010;2023-02-01T03:32:21;5.30;99.90
59282;DHT22;45054;52.062;10.010;2023-02-01T03:34:47;5.40;99.90
59282;DHT22;45054;52.062;10.010;2023-02-01T03:37:13;5.40;99.90
59282;DHT22;45054;52.062;10.010;2023-02-01T03:39:42;5.40;99.90
59282;DHT22;45054;52.062;10.010;2023-02-01T03:42:12;5.40;99.90
59282;DHT22;45054;52.062;10.010;2023-02-01T03:44:40;5.40;99.90
59282;DHT22;45054;52.062;10.010;2023-02-01T03:47:10;5.40;99.90
59282;DHT22;45054;52.062;10.010;2023-02-01T03:49:37;5.40;99.90
59282;DHT22;45054;52.062;10.010;2023-02-01T03:52:03;5.40;99.90
59282;DHT22;45054;52.062;10.010;2023-02-01T03:54:30;5.40;99.90
59282;DHT22;45054;52.062;10.010;2023-02-01T03:56:57;5.40;99.90
59282;DHT22;45054;52.062;10.010;2023-02-01T03:59:24;5.50;99.90
59282;DHT22;45054;52.062;10.010;2023-02-01T04:01:51;5.50;99.90
59282;DHT22;45054;52.062;10.010;2023-02-01T04:04:17;5.40;99.90
59282;DHT22;45054;52.062;10.010;2023-02-01T04:06:42;5.30;99.90
59282;DHT22;45054;52.062;10.010;2023-02-01T04:09:08;5.30;99.90
59282;DHT22;45054;52.062;10.010;2023-02-01T04:11:33;5.20;99.90
59282;DHT22;45054;52.062;10.010;2023-02-01T04:13:59;5.20;99.90
59282;DHT22;45054;52.062;10.010;2023-02-01T04:16:24;5.10;99.90
59282;DHT22;45054;52.062;10.010;2023-02-01T04:18:51;5.20;99.90
59282;DHT22;45054;52.062;10.010;2023-02-01T04:21:16;5.20;99.90
59282;DHT22;45054;52.062;10.010;2023-02-01T04:23:42;5.20;99.90
59282;DHT22;45054;52.062;10.010;2023-02-01T04:26:07;5.20;99.90
59282;DHT22;45054;52.062;10.010;2023-02-01T04:28:33;5.20;99.90
59282;DHT22;45054;52.062;10.010;2023-02-01T04:30:58;5.20;99.90
59282;DHT22;45054;52.062;10.010;2023-02-01T04:33:23;5.20;99.90
59282;DHT22;45054;52.062;10.010;2023-02-01T04:35:50;5.30;99.90
59282;DHT22;45054;52.062;10.010;2023-02-01T04:38:16;5.30;99.90
59282;DHT22;45054;52.062;10.010;2023-02-01T04:40:41;5.30;99.90
59282;DHT22;45054;52.062;10.010;2023-02-01T04:43:07;5.40;99.90
59282;DHT22;45054;52.062;10.010;2023-02-01T04:45:32;5.40;99.90
59282;DHT22;45054;52.062;10.010;2023-02-01T04:47:57;5.40;99.90
59282;DHT22;45054;52.062;10.010;2023-02-01T04:50:23;5.40;99.90
59282;DHT22;45054;52.062;10.010;2023-02-01T04:52:50;5.40;99.90
59282;DHT22;45054;52.062;10.010;2023-02-01T04:55:15;5.40;99.90
59282;DHT22;45054;52.062;10.010;2023-02-01T04:57:41;5.40;99.90
59282;DHT22;45054;52.062;10.010;2023-02-01T05:00:07;5.40;99.90
59282;DHT22;45054;52.062;10.010;2023-02-01T05:02:33;5.40;99.90
59282;DHT22;45054;52.062;10.010;2023-02-01T05:04:58;5.40;99.90
59282;DHT22;45054;52.062;10.010;2023-02-01T05:07:24;5.40;99.90
59282;DHT22;45054;52.062;10.010;2023-02-01T05:09:51;5.40;99.90
59282;DHT22;45054;52.062;10.010;2023-02-01T05:12:16;5.50;99.90
59282;DHT22;45054;52.062;10.010;2023-02-01T05:14:41;5.50;99.90
59282;DHT22;45054;52.062;10.010;2023-02-01T05:17:07;5.50;99.90
59282;DHT22;45054;52.062;10.010;2023-02-01T05:19:32;5.50;99.90
59282;DHT22;45054;52.062;10.010;2023-02-01T05:21:58;5.50;99.90
59282;DHT22;45054;52.062;10.010;2023-02-01T05:24:23;5.40;99.90
59282;DHT22;45054;52.062;10.010;2023-02-01T05:26:50;5.50;99.90
59282;DHT22;45054;52.062;10.010;2023-02-01T05:29:16;5.50;99.90
59282;DHT22;45054;52.062;10.010;2023-02-01T05:31:43;5.50;99.90
59282;DHT22;45054;52.062;10.010;2023-02-01T05:34:09;5.50;99.90
59282;DHT22;45054;52.062;10.010;2023-02-01T05:36:34;5.50;99.90
59282;DHT22;45054;52.062;10.010;2023-02-01T05:39:00;5.40;99.90
59282;DHT22;45054;52.062;10.010;2023-02-01T05:41:25;5.40;99.90
59282;DHT22;45054;52.062;10.010;2023-02-01T05:43:52;5.30;99.90
59282;DHT22;45054;52.062;10.010;2023-02-01T05:46:17;5.30;99.90
59282;DHT22;45054;52.062;10.010;2023-02-01T05:48:43;5.30;99.90
59282;DHT22;45054;52.062;10.010;2023-02-01T05:51:08;5.20;99.90
59282;DHT22;45054;52.062;10.010;2023-02-01T05:53:34;5.20;99.90
59282;DHT22;45054;52.062;10.010;2023-02-01T05:55:59;5.20;99.90
59282;DHT22;45054;52.062;10.010;2023-02-01T05:58:25;5.10;99.90
59282;DHT22;45054;52.062;10.010;2023-02-01T06:00:52;5.10;99.90
59282;DHT22;45054;52.062;10.010;2023-02-01T06:03:17;5.10;99.90
59282;DHT22;45054;52.062;10.010;2023-02-01T06:05:43;5.10;99.90
59282;DHT22;45054;52.062;10.010;2023-02-01T06:08:08;5.20;99.90
59282;DHT22;45054;52.062;10.010;2023-02-01T06:10:34;5.20;99.90
59282;DHT22;45054;52.062;10.010;2023-02-01T06:12:59;5.20;99.90
59282;DHT22;45054;52.062;10.010;2023-02-01T06:15:25;5.20;99.90
59282;DHT22;45054;52.062;10.010;2023-02-01T06:17:51;5.20;99.90
59282;DHT22;45054;52.062;10.010;2023-02-01T06:20:17;5.20;99.90
59282;DHT22;45054;52.062;10.010;2023-02-01T06:22:42;5.20;99.90
59282;DHT22;45054;52.062;10.010;2023-02-01T06:25:09;5.30;99.90
59282;DHT22;45054;52.062;10.010;2023-02-01T06:27:34;5.30;99.90
59282;DHT22;45054;52.062;10.010;2023-02-01T06:30:00;5.20;99.90
59282;DHT22;45054;52.062;10.010;2023-02-01T06:32:25;5.10;99.90
59282;DHT22;45054;52.062;10.010;2023-02-01T06:34:52;5.20;99.90
59282;DHT22;45054;52.062;10.010;2023-02-01T06:37:18;5.00;99.90
59282;DHT22;45054;52.062;10.010;2023-02-01T06:39:43;5.10;99.90
59282;DHT22;45054;52.062;10.010;2023-02-01T06:42:09;5.10;99.90
59282;DHT22;45054;52.062;10.010;2023-02-01T06:44:34;5.00;99.90
59282;DHT22;45054;52.062;10.010;2023-02-01T06:47:00;5.00;99.90
59282;DHT22;45054;52.062;10.010;2023-02-01T06:49:25;5.00;99.90
59282;DHT22;45054;52.062;10.010;2023-02-01T06:51:52;5.00;99.90
59282;DHT22;45054;52.062;10.010;2023-02-01T06:54:18;5.00;99.90
59282;DHT22;45054;52.062;10.010;2023-02-01T06:56:43;5.00;99.90
59282;DHT22;45054;52.062;10.010;2023-02-01T06:59:09;4.90;99.90
59282;DHT22;45054;52.062;10.010;2023-02-01T07:01:35;4.90;99.90
59282;DHT22;45054;52.062;10.010;2023-02-01T07:04:01;4.90;99.90
59282;DHT22;45054;52.062;10.010;2023-02-01T07:06:26;4.80;99.90
59282;DHT22;45054;52.062;10.010;2023-02-01T07:08:53;4.80;99.90
59282;DHT22;45054;52.062;10.010;2023-02-01T07:11:18;4.80;99.90
59282;DHT22;45054;52.062;10.010;2023-02-01T07:13:44;4.80;99.90
59282;DHT22;45054;52.062;10.010;2023-02-01T07:16:10;4.80;99.90
59282;DHT22;45054;52.062;10.010;2023-02-01T07:18:36;4.80;99.90
59282;DHT22;45054;52.062;10.010;2023-02-01T07:21:01;4.80;99.90
59282;DHT22;45054;52.062;10.010;2023-02-01T07:23:27;4.80;99.90
59282;DHT22;45054;52.062;10.010;2023-02-01T07:25:55;4.80;99.90
59282;DHT22;45054;52.062;10.010;2023-02-01T07:28:20;4.80;99.90
59282;DHT22;45054;52.062;10.010;2023-02-01T07:30:46;4.80;99.90
59282;DHT22;45054;52.062;10.010;2023-02-01T07:33:11;4.80;99.90
59282;DHT22;45054;52.062;10.010;2023-02-01T07:35:38;4.80;99.90
59282;DHT22;45054;52.062;10.010;2023-02-01T07:38:03;4.70;99.90
59282;DHT22;45054;52.062;10.010;2023-02-01T07:40:29;4.60;99.90
59282;DHT22;45054;52.062;10.010;2023-02-01T07:42:56;4.60;99.90
59282;DHT22;45054;52.062;10.010;2023-02-01T07:45:21;4.60;99.90
59282;DHT22;45054;52.062;10.010;2023-02-01T07:47:47;4.60;99.90
59282;DHT22;45054;52.062;10.010;2023-02-01T07:50:12;4.60;99.90
59282;DHT22;45054;52.062;10.010;2023-02-01T07:52:38;4.60;99.90
59282;DHT22;45054;52.062;10.010;2023-02-01T07:55:03;4.70;99.90
59282;DHT22;45054;52.062;10.010;2023-02-01T07:57:29;4.70;99.90
59282;DHT22;45054;52.062;10.010;2023-02-01T07:59:56;4.70;99.90
59282;DHT22;45054;52.062;10.010;2023-02-01T08:02:21;4.70;99.90
59282;DHT22;45054;52.062;10.010;2023-02-01T08:04:46;4.80;99.90
59282;DHT22;45054;52.062;10.010;2023-02-01T08:07:12;4.90;99.90
59282;DHT22;45054;52.062;10.010;2023-02-01T08:09:37;4.90;99.90
59282;DHT22;45054;52.062;10.010;2023-02-01T08:12:03;4.90;99.90
59282;DHT22;45054;52.062;10.010;2023-02-01T08:14:28;4.90;99.90
59282;DHT22;45054;52.062;10.010;2023-02-01T08:16:55;5.10;99.90
59282;DHT22;45054;52.062;10.010;2023-02-01T08:19:20;5.10;99.90
59282;DHT22;45054;52.062;10.010;2023-02-01T08:21:46;5.10;99.90
59282;DHT22;45054;52.062;10.010;2023-02-01T08:24:12;5.20;99.90
59282;DHT22;45054;52.062;10.010;2023-02-01T08:26:37;5.20;99.90
59282;DHT22;45054;52.062;10.010;2023-02-01T08:29:04;5.30;99.90
59282;DHT22;45054;52.062;10.010;2023-02-01T08:31:30;5.30;99.90
59282;DHT22;45054;52.062;10.010;2023-02-01T08:33:57;5.40;99.90
59282;DHT22;45054;52.062;10.010;2023-02-01T08:36:23;5.40;99.90
59282;DHT22;45054;52.062;10.010;2023-02-01T08:38:49;5.40;99.90
59282;DHT22;45054;52.062;10.010;2023-02-01T08:41:15;5.40;99.90
59282;DHT22;45054;52.062;10.010;2023-02-01T08:43:41;5.40;99.90
59282;DHT22;45054;52.062;10.010;2023-02-01T08:46:07;5.50;99.90
59282;DHT22;45054;52.062;10.010;2023-02-01T08:48:33;5.50;99.90
59282;DHT22;45054;52.062;10.010;2023-02-01T08:51:01;5.50;99.90
59282;DHT22;45054;52.062;10.010;2023-02-01T08:53:27;5.50;99.90
59282;DHT22;45054;52.062;10.010;2023-02-01T08:55:52;5.60;99.90
59282;DHT22;45054;52.062;10.010;2023-02-01T08:58:18;5.60;99.90
59282;DHT22;45054;52.062;10.010;2023-02-01T09:00:43;5.60;99.90
59282;DHT22;45054;52.062;10.010;2023-02-01T09:03:09;5.60;99.90
59282;DHT22;45054;52.062;10.010;2023-02-01T09:05:34;5.60;99.90
59282;DHT22;45054;52.062;10.010;2023-02-01T09:08:01;5.60;99.90
59282;DHT22;45054;52.062;10.010;2023-02-01T09:10:27;5.60;99.90
59282;DHT22;45054;52.062;10.010;2023-02-01T09:12:52;5.60;99.90
59282;DHT22;45054;52.062;10.010;2023-02-01T09:15:17;5.70;99.90
59282;DHT22;45054;52.062;10.010;2023-02-01T09:17:43;5.60;99.90
59282;DHT22;45054;52.062;10.010;2023-02-01T09:20:09;5.70;99.90
59282;DHT22;45054;52.062;10.010;2023-02-01T09:22:34;5.80;99.90
59282;DHT22;45054;52.062;10.010;2023-02-01T09:25:01;5.80;99.90
59282;DHT22;45054;52.062;10.010;2023-02-01T09:27:27;5.80;99.90
59282;DHT22;45054;52.062;10.010;2023-02-01T09:29:52;5.90;99.90
59282;DHT22;45054;52.062;10.010;2023-02-01T09:32:18;5.90;99.90
59282;DHT22;45054;52.062;10.010;2023-02-01T09:34:44;5.80;99.90
59282;DHT22;45054;52.062;10.010;2023-02-01T09:37:09;5.70;99.90
59282;DHT22;45054;52.062;10.010;2023-02-01T09:39:34;5.70;99.90
59282;DHT22;45054;52.062;10.010;2023-02-01T09:42:05;5.80;99.90
59282;DHT22;45054;52.062;10.010;2023-02-01T09:44:37;5.70;99.90
59282;DHT22;45054;52.062;10.010;2023-02-01T09:47:03;5.70;99.90
59282;DHT22;45054;52.062;10.010;2023-02-01T09:49:30;5.80;99.90
59282;DHT22;45054;52.062;10.010;2023-02-01T09:51:56;5.80;99.90
59282;DHT22;45054;52.062;10.010;2023-02-01T09:54:22;5.80;99.90
59282;DHT22;45054;52.062;10.010;2023-02-01T09:56:48;5.90;99.90
59282;DHT22;45054;52.062;10.010;2023-02-01T09:59:23;5.90;99.90
59282;DHT22;45054;52.062;10.010;2023-02-01T10:01:50;5.90;99.90
59282;DHT22;45054;52.062;10.010;2023-02-01T10:04:15;5.90;99.90
59282;DHT22;45054;52.062;10.010;2023-02-01T10:06:45;6.00;99.90
59282;DHT22;45054;52.062;10.010;2023-02-01T10:09:21;6.00;99.90
59282;DHT22;45054;52.062;10.010;2023-02-01T10:11:53;6.10;99.90
59282;DHT22;45054;52.062;10.010;2023-02-01T10:14:36;6.10;99.90
59282;DHT22;45054;52.062;10.010;2023-02-01T10:17:08;6.20;99.90
59282;DHT22;45054;52.062;10.010;2023-02-01T10:19:39;6.20;99.90
59282;DHT22;45054;52.062;10.010;2023-02-01T10:22:09;6.20;99.90
59282;DHT22;45054;52.062;10.010;2023-02-01T10:24:37;6.30;99.90
59282;DHT22;45054;52.062;10.010;2023-02-01T10:27:09;6.30;99.90
59282;DHT22;45054;52.062;10.010;2023-02-01T10:29:38;6.30;99.90
59282;DHT22;45054;52.062;10.010;2023-02-01T10:32:08;6.30;99.90
59282;DHT22;45054;52.062;10.010;2023-02-01T10:34:35;6.30;99.90
59282;DHT22;45054;52.062;10.010;2023-02-01T10:37:02;6.30;99.90
59282;DHT22;45054;52.062;10.010;2023-02-01T10:39:33;6.30;99.90
59282;DHT22;45054;52.062;10.010;2023-02-01T10:41:59;6.40;99.90
59282;DHT22;45054;52.062;10.010;2023-02-01T10:44:25;6.40;99.90
59282;DHT22;45054;52.062;10.010;2023-02-01T10:46:52;6.40;99.90
59282;DHT22;45054;52.062;10.010;2023-02-01T10:49:18;6.40;99.90
59282;DHT22;45054;52.062;10.010;2023-02-01T10:51:47;6.50;99.90
59282;DHT22;45054;52.062;10.010;2023-02-01T10:54:14;6.50;99.90
59282;DHT22;45054;52.062;10.010;2023-02-01T10:56:41;6.50;99.90
59282;DHT22;45054;52.062;10.010;2023-02-01T10:59:13;6.50;99.90
59282;DHT22;45054;52.062;10.010;2023-02-01T11:01:40;6.50;99.90
59282;DHT22;45054;52.062;10.010;2023-02-01T11:04:09;6.50;99.90
59282;DHT22;45054;52.062;10.010;2023-02-01T11:06:35;6.50;99.90
59282;DHT22;45054;52.062;10.010;2023-02-01T11:09:08;6.50;99.90
59282;DHT22;45054;52.062;10.010;2023-02-01T11:11:38;6.50;99.90
59282;DHT22;45054;52.062;10.010;2023-02-01T11:14:18;6.50;99.90
59282;DHT22;45054;52.062;10.010;2023-02-01T11:16:47;6.40;99.90
59282;DHT22;45054;52.062;10.010;2023-02-01T11:19:14;6.40;99.90
59282;DHT22;45054;52.062;10.010;2023-02-01T11:21:41;6.50;99.90
59282;DHT22;45054;52.062;10.010;2023-02-01T11:24:11;6.50;99.90
59282;DHT22;45054;52.062;10.010;2023-02-01T11:26:41;6.50;99.90
59282;DHT22;45054;52.062;10.010;2023-02-01T11:29:09;6.50;99.90
59282;DHT22;45054;52.062;10.010;2023-02-01T11:31:36;6.50;99.90
59282;DHT22;45054;52.062;10.010;2023-02-01T11:34:05;6.50;99.90
59282;DHT22;45054;52.062;10.010;2023-02-01T11:36:33;6.50;99.90
59282;DHT22;45054;52.062;10.010;2023-02-01T11:39:08;6.40;99.90
59282;DHT22;45054;52.062;10.010;2023-02-01T11:41:34;6.50;99.90
59282;DHT22;45054;52.062;10.010;2023-02-01T11:44:17;6.50;99.90
59282;DHT22;45054;52.062;10.010;2023-02-01T11:46:44;6.50;99.90
59282;DHT22;45054;52.062;10.010;2023-02-01T11:49:14;6.50;99.90
59282;DHT22;45054;52.062;10.010;2023-02-01T11:51:48;6.50;99.90
59282;DHT22;45054;52.062;10.010;2023-02-01T11:54:21;6.40;99.90
59282;DHT22;45054;52.062;10.010;2023-02-01T11:56:51;6.40;99.90
59282;DHT22;45054;52.062;10.010;2023-02-01T11:59:23;6.40;99.90
59282;DHT22;45054;52.062;10.010;2023-02-01T12:01:57;6.40;99.90
59282;DHT22;45054;52.062;10.010;2023-02-01T12:04:32;6.30;99.90
59282;DHT22;45054;52.062;10.010;2023-02-01T12:07:03;6.30;99.90
59282;DHT22;45054;52.062;10.010;2023-02-01T12:09:33;6.30;99.90
59282;DHT22;45054;52.062;10.010;2023-02-01T12:12:03;6.30;99.90
59282;DHT22;45054;52.062;10.010;2023-02-01T12:14:35;6.30;99.90
59282;DHT22;45054;52.062;10.010;2023-02-01T12:17:08;6.30;99.90
59282;DHT22;45054;52.062;10.010;2023-02-01T12:19:41;6.40;99.90
59282;DHT22;45054;52.062;10.010;2023-02-01T12:22:14;6.40;99.90
59282;DHT22;45054;52.062;10.010;2023-02-01T12:24:47;6.40;99.90
59282;DHT22;45054;52.062;10.010;2023-02-01T12:30:10;6.50;99.90
59282;DHT22;45054;52.062;10.010;2023-02-01T12:32:42;6.60;99.90
59282;DHT22;45054;52.062;10.010;2023-02-01T12:35:19;6.60;99.90
59282;DHT22;45054;52.062;10.010;2023-02-01T12:37:53;6.70;99.90
59282;DHT22;45054;52.062;10.010;2023-02-01T12:40:25;6.80;99.90
59282;DHT22;45054;52.062;10.010;2023-02-01T12:42:55;6.70;99.90
59282;DHT22;45054;52.062;10.010;2023-02-01T12:45:25;6.60;99.90
59282;DHT22;45054;52.062;10.010;2023-02-01T12:47:54;6.60;99.90
59282;DHT22;45054;52.062;10.010;2023-02-01T12:50:22;6.50;99.90
59282;DHT22;45054;52.062;10.010;2023-02-01T12:52:50;6.30;99.90
59282;DHT22;45054;52.062;10.010;2023-02-01T12:55:17;6.20;99.90
59282;DHT22;45054;52.062;10.010;2023-02-01T12:57:46;6.20;99.90
59282;DHT22;45054;52.062;10.010;2023-02-01T13:00:16;6.20;99.90
59282;DHT22;45054;52.062;10.010;2023-02-01T13:02:44;6.20;99.90
59282;DHT22;45054;52.062;10.010;2023-02-01T13:05:13;6.30;99.90
59282;DHT22;45054;52.062;10.010;2023-02-01T13:07:41;6.20;99.90
59282;DHT22;45054;52.062;10.010;2023-02-01T13:10:12;6.20;99.90
59282;DHT22;45054;52.062;10.010;2023-02-01T13:12:43;6.10;99.90
59282;DHT22;45054;52.062;10.010;2023-02-01T13:15:10;6.10;99.90
59282;DHT22;45054;52.062;10.010;2023-02-01T13:17:38;6.00;99.90
59282;DHT22;45054;52.062;10.010;2023-02-01T13:20:05;5.90;99.90
59282;DHT22;45054;52.062;10.010;2023-02-01T13:22:33;6.00;99.90
59282;DHT22;45054;52.062;10.010;2023-02-01T13:24:59;5.80;99.90
59282;DHT22;45054;52.062;10.010;2023-02-01T13:27:26;5.70;99.90
59282;DHT22;45054;52.062;10.010;2023-02-01T13:29:54;5.70;99.90
59282;DHT22;45054;52.062;10.010;2023-02-01T13:35:23;5.70;99.90
59282;DHT22;45054;52.062;10.010;2023-02-01T13:37:59;5.70;99.90
59282;DHT22;45054;52.062;10.010;2023-02-01T13:40:31;5.50;99.90
59282;DHT22;45054;52.062;10.010;2023-02-01T13:43:00;5.50;99.90
59282;DHT22;45054;52.062;10.010;2023-02-01T13:45:29;5.50;99.90
59282;DHT22;45054;52.062;10.010;2023-02-01T13:47:56;5.50;99.90
59282;DHT22;45054;52.062;10.010;2023-02-01T13:50:23;5.50;99.90
59282;DHT22;45054;52.062;10.010;2023-02-01T13:52:54;5.40;99.90
59282;DHT22;45054;52.062;10.010;2023-02-01T13:55:24;5.50;99.90
59282;DHT22;45054;52.062;10.010;2023-02-01T13:57:51;5.50;99.90
59282;DHT22;45054;52.062;10.010;2023-02-01T14:00:24;5.40;99.90
59282;DHT22;45054;52.062;10.010;2023-02-01T14:03:06;5.50;99.90
59282;DHT22;45054;52.062;10.010;2023-02-01T14:08:21;5.40;99.90
59282;DHT22;45054;52.062;10.010;2023-02-01T14:10:47;5.30;99.90
59282;DHT22;45054;52.062;10.010;2023-02-01T14:13:13;5.10;99.90
59282;DHT22;45054;52.062;10.010;2023-02-01T14:15:53;5.00;99.90
59282;DHT22;45054;52.062;10.010;2023-02-01T14:21:22;5.00;99.90
59282;DHT22;45054;52.062;10.010;2023-02-01T14:23:54;4.70;99.90
59282;DHT22;45054;52.062;10.010;2023-02-01T14:26:21;4.00;99.90
59282;DHT22;45054;52.062;10.010;2023-02-01T14:28:50;3.40;99.90
59282;DHT22;45054;52.062;10.010;2023-02-01T14:31:29;3.00;99.90
59282;DHT22;45054;52.062;10.010;2023-02-01T14:33:56;2.80;99.90
59282;DHT22;45054;52.062;10.010;2023-02-01T14:36:24;2.50;99.90
59282;DHT22;45054;52.062;10.010;2023-02-01T14:38:49;2.30;99.90
59282;DHT22;45054;52.062;10.010;2023-02-01T14:41:25;2.30;99.90
59282;DHT22;45054;52.062;10.010;2023-02-01T14:43:59;2.30;99.90
59282;DHT22;45054;52.062;10.010;2023-02-01T14:49:22;2.40;99.90
59282;DHT22;45054;52.062;10.010;2023-02-01T14:51:48;2.40;99.90
59282;DHT22;45054;52.062;10.010;2023-02-01T14:54:15;2.50;99.90
59282;DHT22;45054;52.062;10.010;2023-02-01T14:56:41;2.40;99.90
59282;DHT22;45054;52.062;10.010;2023-02-01T14:59:07;2.50;99.90
59282;DHT22;45054;52.062;10.010;2023-02-01T15:01:34;2.60;99.90
59282;DHT22;45054;52.062;10.010;2023-02-01T15:04:01;2.60;99.90
59282;DHT22;45054;52.062;10.010;2023-02-01T15:06:33;2.70;99.90
59282;DHT22;45054;52.062;10.010;2023-02-01T15:09:02;2.80;99.90
59282;DHT22;45054;52.062;10.010;2023-02-01T15:11:28;2.90;99.90
59282;DHT22;45054;52.062;10.010;2023-02-01T15:13:54;3.10;99.90
59282;DHT22;45054;52.062;10.010;2023-02-01T15:16:20;3.30;99.90
59282;DHT22;45054;52.062;10.010;2023-02-01T15:18:46;3.30;99.90
59282;DHT22;45054;52.062;10.010;2023-02-01T15:21:15;3.30;99.90
59282;DHT22;45054;52.062;10.010;2023-02-01T15:23:42;3.20;99.90
59282;DHT22;45054;52.062;10.010;2023-02-01T15:26:08;3.20;99.90
59282;DHT22;45054;52.062;10.010;2023-02-01T15:28:33;3.20;99.90
59282;DHT22;45054;52.062;10.010;2023-02-01T15:30:59;3.20;99.90
59282;DHT22;45054;52.062;10.010;2023-02-01T15:33:26;3.20;99.90
59282;DHT22;45054;52.062;10.010;2023-02-01T15:35:52;3.20;99.90
59282;DHT22;45054;52.062;10.010;2023-02-01T15:38:25;3.20;99.90
59282;DHT22;45054;52.062;10.010;2023-02-01T15:40:56;3.20;99.90
59282;DHT22;45054;52.062;10.010;2023-02-01T15:43:22;3.30;99.90
59282;DHT22;45054;52.062;10.010;2023-02-01T15:45:47;3.20;99.90